Latest Weather Observations for Yeppoon

IDQ60801

Issued at 3:32 pm EST Saturday 31 January 2015 (issued every 30 minutes, with the page automatically refreshed every 10 minutes)

About weather observations | Map of weather stations | Latest weather observations for QLD | Other Formats
Station Details ID: 033294 Name: YEPPOON THE ESPLANADE Lat: -23.14 Lon: 150.75 Height: 5.5 m
Data from the previous 72 hours. | See also: Recent months at Yeppoon
Date/Time
EST
Temp
°C
App
Temp
°C
Dew
Point
Rel
Hum
%
Delta-T
°C
Wind Press
QNH
hPa
Press
MSL
hPa
Rain
since 9 am
mm
Dir
 
Spd
km/h
Gust
km/h
Spd
kts
Gust
kts
31/03:30pm 29.4 31.1 23.1 69 4.3 NNE 19 22 10 12 1004.7 1004.7 0.0
31/03:00pm 29.8 32.4 23.3 68 4.5 NE 15 19 8 10 1005.1 1005.1 0.0
31/02:30pm 29.7 31.9 23.3 68 4.4 NE 17 19 9 10 1005.7 1005.7 0.0
31/02:00pm 30.1 33.2 23.6 68 4.5 NE 13 19 7 10 1006.1 1006.1 0.0
31/01:30pm 29.5 31.8 22.1 64 5.0 NE 13 17 7 9 1006.6 1006.6 0.0
31/01:00pm 29.6 31.6 22.2 64 5.0 NE 15 20 8 11 1007.1 1007.1 0.0
31/12:30pm 29.7 32.6 22.5 65 4.9 NE 11 17 6 9 1007.4 1007.4 0.0
31/12:00pm 29.2 32.0 22.3 66 4.7 NE 11 17 6 9 1007.7 1007.7 0.0
31/11:30am 28.9 31.8 22.4 68 4.4 NE 11 15 6 8 1008.0 1008.0 0.0
31/11:00am 29.0 32.3 22.5 68 4.4 NE 9 13 5 7 1008.4 1008.4 0.0
31/10:30am 28.7 32.2 22.2 68 4.4 ENE 7 11 4 6 1008.4 1008.4 0.0
31/10:00am 28.7 31.6 21.7 66 4.7 ENE 9 13 5 7 1008.5 1008.5 0.0
31/09:30am 28.8 31.0 21.2 63 5.1 E 11 15 6 8 1008.7 1008.7 0.0
31/09:00am 28.7 31.8 21.5 65 4.8 ENE 7 11 4 6 1008.8 1008.8 0.0
31/08:30am 28.3 30.8 21.1 65 4.8 E 9 13 5 7 1008.8 1008.8 0.0
31/08:00am 26.8 30.5 22.2 76 3.1 N 6 9 3 5 1008.7 1008.7 0.0
31/07:30am 25.6 29.1 21.9 80 2.5 SW 6 7 3 4 1008.5 1008.5 0.0
31/07:00am 23.9 26.7 21.5 86 1.6 W 9 9 5 5 1008.2 1008.2 0.0
31/06:30am 22.6 25.0 20.9 90 1.1 WSW 9 13 5 7 1008.2 1008.2 0.0
31/06:00am 22.1 24.4 20.7 92 0.9 W 9 13 5 7 1007.8 1007.8 0.0
31/05:30am 22.1 24.4 20.7 92 0.9 W 9 11 5 6 1007.5 1007.5 0.0
31/05:00am 22.1 24.1 20.7 92 0.9 WNW 11 13 6 7 1007.2 1007.2 0.0
31/04:30am 22.8 25.6 20.8 88 1.3 W 7 9 4 5 1006.9 1006.9 0.0
31/04:00am 24.1 27.5 20.9 82 2.1 WSW 4 7 2 4 1006.7 1006.7 0.0
31/03:30am 26.3 28.8 21.0 72 3.5 ENE 9 13 5 7 1006.7 1006.7 0.0
31/03:00am 26.3 27.9 20.8 71 3.6 ENE 13 19 7 10 1006.7 1006.7 0.0
31/02:30am 26.4 27.4 21.1 72 3.5 NE 17 20 9 11 1006.6 1006.6 0.0
31/02:00am 25.8 28.8 21.3 76 3.0 ENE 7 13 4 7 1006.9 1006.9 0.0
31/01:30am 26.4 28.5 21.0 72 3.6 E 11 15 6 8 1007.0 1007.0 0.0
31/01:00am 26.5 29.1 21.2 72 3.5 ENE 9 13 5 7 1007.3 1007.3 0.0
31/12:30am 26.5 28.2 20.9 71 3.7 ENE 13 19 7 10 1007.7 1007.7 0.0
31/12:00am 26.7 28.3 20.8 70 3.9 NE 13 19 7 10 1007.9 1007.9 0.0
 
Date/Time
EST
Temp
°C
App
Temp
°C
Dew
Point
Rel
Hum
%
Delta-T
°C
Wind Press
QNH
hPa
Press
MSL
hPa
Rain
since 9 am
mm
Dir
 
Spd
km/h
Gust
km/h
Spd
kts
Gust
kts
30/11:30pm 26.7 28.2 20.6 69 4.0 ENE 13 17 7 9 1008.3 1008.3 0.0
30/11:00pm 26.8 28.5 20.9 70 3.9 ENE 13 20 7 11 1008.5 1008.5 0.0
30/10:30pm 26.7 28.2 20.6 69 4.0 ENE 13 20 7 11 1008.6 1008.6 0.0
30/10:00pm 26.8 28.7 21.4 72 3.6 ENE 13 19 7 10 1008.4 1008.4 0.0
30/09:30pm 26.9 28.4 21.2 71 3.8 ENE 15 22 8 12 1008.2 1008.2 0.0
30/09:00pm 26.9 28.0 21.2 71 3.8 NE 17 20 9 11 1008.0 1008.0 0.0
30/08:30pm 27.0 28.3 21.6 72 3.6 NE 17 20 9 11 1007.8 1007.8 0.0
30/08:00pm 27.0 28.1 21.3 71 3.8 ENE 17 22 9 12 1007.7 1007.7 0.0
30/07:30pm 27.1 28.1 21.1 69 4.0 ENE 17 20 9 11 1007.4 1007.4 0.0
30/07:00pm 27.1 28.2 21.2 70 3.9 ENE 17 26 9 14 1007.1 1007.1 0.0
30/06:30pm 27.2 28.9 20.9 68 4.2 ENE 13 19 7 10 1006.8 1006.8 0.0
30/06:00pm 27.4 28.1 20.4 65 4.6 NE 17 22 9 12 1006.5 1006.5 0.0
30/05:30pm 27.4 28.4 21.1 68 4.2 ENE 17 20 9 11 1006.3 1006.3 0.0
30/05:00pm 27.6 28.6 21.0 67 4.4 ENE 17 24 9 13 1006.2 1006.2 0.0
30/04:30pm 27.8 28.6 20.7 65 4.7 E 17 24 9 13 1006.1 1006.1 0.0
30/04:00pm 28.4 28.5 20.0 60 5.5 E 19 24 10 13 1006.1 1006.1 0.0
30/03:30pm 28.9 29.2 20.4 60 5.6 E 19 26 10 14 1006.0 1006.0 0.0
30/03:00pm 28.9 28.9 20.1 59 5.8 E 20 26 11 14 1006.3 1006.3 0.0
30/02:30pm 29.4 29.4 19.8 56 6.3 E 19 24 10 13 1006.6 1006.6 0.0
30/02:00pm 29.0 29.0 20.2 59 5.8 E 20 26 11 14 1006.9 1006.9 0.0
30/01:30pm 29.3 28.8 20.0 57 6.1 E 22 28 12 15 1007.3 1007.3 0.0
30/01:00pm 29.2 29.9 21.6 63 5.1 E 20 30 11 16 1007.6 1007.6 0.0
30/12:30pm 29.2 30.2 21.8 64 5.0 E 19 28 10 15 1007.9 1007.9 0.0
30/12:00pm 29.1 29.8 21.2 62 5.3 ESE 19 28 10 15 1008.3 1008.3 0.0
30/11:30am 29.0 30.0 21.7 64 4.9 ESE 19 32 10 17 1008.6 1008.6 0.0
30/11:00am 28.8 29.5 21.5 64 4.9 E 20 30 11 16 1008.8 1008.8 0.0
30/10:30am 28.8 29.8 21.8 66 4.7 ESE 19 28 10 15 1008.8 1008.8 0.0
30/10:00am 27.9 28.7 21.8 69 4.1 ESE 20 26 11 14 1008.7 1008.7 0.0
30/09:30am 27.6 28.2 21.3 68 4.2 ESE 20 28 11 15 1008.6 1008.6 0.0
30/09:00am 26.9 27.7 21.7 73 3.5 SE 20 28 11 15 1008.6 1008.6 0.2
30/08:30am 26.9 27.9 21.8 73 3.4 SE 19 28 10 15 1008.5 1008.5 0.2
30/08:00am 26.0 27.5 22.0 78 2.7 SE 17 24 9 13 1008.4 1008.4 0.2
30/07:30am 25.0 27.2 21.8 82 2.1 S 13 20 7 11 1008.4 1008.4 0.2
30/07:00am 23.9 25.6 21.6 87 1.5 S 15 24 8 13 1007.9 1007.9 0.2
30/06:30am 23.4 25.6 21.9 91 1.0 S 13 20 7 11 1007.6 1007.6 0.2
30/06:00am 23.1 25.2 21.7 92 0.9 S 13 19 7 10 1007.1 1007.1 0.2
30/05:30am 23.2 25.4 21.8 92 0.9 S 13 19 7 10 1006.6 1006.6 0.2
30/05:00am 23.3 25.1 21.8 91 1.0 S 15 20 8 11 1006.3 1006.3 0.2
30/04:30am 23.7 26.0 22.0 90 1.1 S 13 19 7 10 1006.3 1006.3 0.2
30/04:00am 24.3 27.0 22.2 88 1.4 S 11 17 6 9 1006.2 1006.2 0.2
30/03:30am 26.2 27.7 21.2 74 3.3 ESE 15 22 8 12 1006.4 1006.4 0.2
30/03:00am 26.2 27.2 21.1 73 3.4 ESE 17 24 9 13 1006.4 1006.4 0.2
30/02:30am 26.4 27.8 21.9 76 3.0 ESE 17 26 9 14 1006.5 1006.5 0.2
30/02:00am 26.4 27.2 21.3 73 3.4 ESE 19 28 10 15 1006.9 1006.9 0.2
30/01:30am 26.3 26.6 20.7 71 3.7 ESE 20 33 11 18 1007.1 1007.1 0.2
30/01:00am 26.4 26.2 21.3 73 3.4 E 24 32 13 17 1007.2 1007.2 0.2
30/12:30am 26.4 26.6 21.3 73 3.4 E 22 33 12 18 1007.3 1007.3 0.2
30/12:00am 26.7 27.7 22.1 76 3.1 E 20 28 11 15 1007.7 1007.7 0.2
 
Date/Time
EST
Temp
°C
App
Temp
°C
Dew
Point
Rel
Hum
%
Delta-T
°C
Wind Press
QNH
hPa
Press
MSL
hPa
Rain
since 9 am
mm
Dir
 
Spd
km/h
Gust
km/h
Spd
kts
Gust
kts
29/11:30pm 26.7 27.3 21.4 72 3.5 E 20 30 11 16 1007.8 1007.8 0.2
29/11:00pm 26.8 26.6 22.0 75 3.2 E 26 35 14 19 1007.9 1007.9 0.2
29/10:30pm 26.8 27.2 21.7 73 3.4 E 22 33 12 18 1008.1 1008.1 0.2
29/10:00pm 26.8 26.8 21.6 73 3.5 E 24 33 13 18 1008.0 1008.0 0.2
29/09:30pm 26.9 27.1 21.3 71 3.7 ESE 22 35 12 19 1007.9 1007.9 0.2
29/09:00pm 26.8 27.9 22.0 75 3.2 ESE 19 28 10 15 1007.6 1007.6 0.2
29/08:30pm 26.9 28.3 22.6 77 2.9 ESE 19 32 10 17 1007.6 1007.6 0.2
29/08:00pm 26.8 27.8 22.2 76 3.1 ESE 20 30 11 16 1007.5 1007.5 0.2
29/07:30pm 26.8 26.9 21.2 71 3.7 ESE 22 33 12 18 1007.4 1007.4 0.2
29/07:00pm 27.0 27.4 21.8 73 3.5 ESE 22 33 12 18 1007.0 1007.0 0.2
29/06:30pm 27.1 28.0 22.0 73 3.4 ESE 20 32 11 17 1006.5 1006.5 0.2
29/06:00pm 27.2 27.6 21.7 72 3.7 ESE 22 32 12 17 1006.0 1006.0 0.2
29/05:30pm 27.3 27.8 21.9 72 3.6 ESE 22 33 12 18 1005.7 1005.7 0.2
29/05:00pm 27.6 28.2 22.1 72 3.7 E 22 32 12 17 1005.4 1005.4 0.2
29/04:30pm 27.9 29.0 22.3 71 3.8 E 20 32 11 17 1005.3 1005.3 0.2
29/04:00pm 28.7 29.6 22.0 67 4.5 ESE 20 30 11 16 1005.2 1005.2 0.2
29/03:30pm 28.4 29.3 22.0 68 4.3 E 20 28 11 15 1005.1 1005.1 0.2
29/03:00pm 28.5 29.6 22.0 68 4.4 ESE 19 30 10 16 1005.1 1005.1 0.2
29/02:30pm 28.5 29.7 22.1 68 4.3 ESE 19 26 10 14 1005.2 1005.2 0.2
29/02:00pm 28.1 29.2 22.0 69 4.1 ESE 19 28 10 15 1005.5 1005.5 0.2
29/01:30pm 28.1 28.6 21.9 69 4.2 ESE 22 32 12 17 1005.7 1005.7 0.2
29/01:00pm 27.9 28.6 21.5 68 4.3 ESE 20 32 11 17 1006.0 1006.0 0.2
29/12:30pm 27.8 28.8 21.7 69 4.1 ESE 19 32 10 17 1006.2 1006.2 0.2
29/12:00pm 27.9 27.6 21.1 66 4.5 E 24 33 13 18 1006.3 1006.3 0.2
29/11:30am 27.6 28.5 21.5 69 4.1 SE 19 32 10 17 1006.4 1006.4 0.2
29/11:00am 26.8 26.9 21.2 71 3.7 SSE 22 33 12 18 1006.7 1006.7 0.2
29/10:30am 26.6 27.5 21.5 73 3.4 SE 19 26 10 14 1006.7 1006.7 0.2
29/10:00am 26.3 27.2 21.5 75 3.2 SE 19 30 10 16 1006.8 1006.8 0.2
29/09:30am 25.6 26.4 21.4 77 2.8 SE 19 32 10 17 1006.7 1006.7 0.0
29/09:00am 25.0 25.6 21.1 79 2.6 SE 19 30 10 16 1006.8 1006.8 44.8
29/08:30am 25.0 25.1 21.1 79 2.6 SE 22 32 12 17 1006.6 1006.6 44.8
29/08:00am 24.8 24.9 21.2 80 2.4 SSE 22 32 12 17 1006.4 1006.4 44.8
29/07:30am 24.6 25.2 21.1 81 2.3 SSE 19 24 10 13 1006.0 1006.0 44.8
29/07:00am 24.0 25.5 21.3 85 1.8 SSE 15 24 8 13 1006.0 1006.0 44.8
29/06:30am 23.7 24.5 21.3 86 1.6 SSE 19 28 10 15 1005.7 1005.7 44.8
29/06:00am 23.5 24.7 21.5 88 1.3 SSE 17 26 9 14 1005.3 1005.3 44.8
29/05:30am 23.5 24.6 22.0 91 1.0 SSE 19 28 10 15 1005.0 1005.0 44.8
29/05:00am 23.4 25.9 22.4 94 0.7 SSE 13 19 7 10 1004.4 1004.4 44.8
29/04:30am 23.4 25.5 22.5 95 0.6 SSE 15 20 8 11 1004.0 1004.0 44.8
29/04:00am 23.4 25.1 22.4 94 0.7 SSE 17 24 9 13 1003.9 1003.9 44.8
29/03:30am 23.7 25.2 22.7 94 0.7 SSE 19 30 10 16 1003.8 1003.8 44.8
29/03:00am 23.8 27.0 23.1 96 0.5 SSE 11 17 6 9 1003.8 1003.8 44.0
29/02:30am 23.9 26.3 22.9 94 0.7 SSE 15 22 8 12 1003.9 1003.9 44.0
29/02:00am 24.1 26.1 22.9 93 0.8 SE 17 26 9 14 1004.1 1004.1 43.2
29/01:30am 24.0 25.9 22.8 93 0.8 SE 17 22 9 12 1004.1 1004.1 42.8
29/01:00am 24.5 26.5 22.9 91 1.1 SSE 17 26 9 14 1004.6 1004.6 42.6
29/12:30am 25.1 26.0 22.7 86 1.6 SE 22 32 12 17 1004.9 1004.9 42.4
29/12:00am 25.5 27.5 23.0 86 1.7 ESE 17 30 9 16 1005.0 1005.0 42.4
 
Date/Time
EST
Temp
°C
App
Temp
°C
Dew
Point
Rel
Hum
%
Delta-T
°C
Wind Press
QNH
hPa
Press
MSL
hPa
Rain
since 9 am
mm
Dir
 
Spd
km/h
Gust
km/h
Spd
kts
Gust
kts
28/11:30pm 25.9 27.0 23.1 84 1.9 SE 22 37 12 20 1005.3 1005.3 42.4
28/11:00pm 26.4 28.2 21.8 76 3.1 E 15 22 8 12 1005.3 1005.3 42.4
28/10:30pm 26.2 26.7 20.9 72 3.5 E 19 26 10 14 1005.2 1005.2 42.4
28/10:00pm 26.1 26.6 20.8 72 3.5 E 19 30 10 16 1005.0 1005.0 42.4
28/09:30pm 26.1 26.3 21.4 75 3.1 ENE 22 28 12 15 1004.9 1004.9 42.4
28/09:00pm 25.9 27.1 22.2 80 2.5 E 19 26 10 14 1005.0 1005.0 42.4
28/08:30pm 25.9 26.4 21.9 78 2.7 E 22 28 12 15 1004.8 1004.8 42.4
28/08:00pm 24.8 27.1 22.1 85 1.8 SE 13 30 7 16 1004.2 1004.2 42.4
28/07:30pm 24.2 26.0 21.2 83 2.0 SE 13 22 7 12 1003.8 1003.8 42.4
28/07:00pm 23.0 25.7 21.3 90 1.1 SSE 9 15 5 8 1003.6 1003.6 42.4
28/06:30pm 23.1 24.8 21.0 88 1.4 SE 13 17 7 9 1003.6 1003.6 42.4
28/06:00pm 24.1 26.1 21.5 85 1.7 SE 13 20 7 11 1003.6 1003.6 42.2
28/05:30pm 24.1 24.5 21.7 86 1.6 ESE 22 37 12 20 1003.5 1003.5 42.2
28/05:00pm 24.5 24.3 22.1 86 1.6 SE 26 39 14 21 1002.9 1002.9 42.2
28/04:30pm 25.5 25.9 22.5 83 2.0 E 24 35 13 19 1002.4 1002.4 42.2
28/04:00pm 25.1 26.8 23.0 88 1.4 E 19 26 10 14 1002.4 1002.4 42.2

Other Formats:

Comma delimited format used in spreadsheet applications
http://www.bom.gov.au/fwo/IDQ60801/IDQ60801.94373.axf

JavaScript Object Notation format (JSON) in row-major order
http://www.bom.gov.au/fwo/IDQ60801/IDQ60801.94373.json